Time;durP1;ratioP1;P1;durP2;ratioP2;P2;SDS_P1;SDS_P2;PMS_P1;PMS_P2;Temp;Humidity;BMP_temperature;BMP_pressure;BME280_temperature;BME280_humidity;BME280_pressure;Samples;Min_cycle;Max_cycle;Signal;HPM_P1;HPM_P2
2021/12/19 00:00:17;;;;;;;5.80;4.80;;;;;;;;;;5072438;28;20274;-61
2021/12/19 00:10:57;;;;;;;5.80;4.40;;;;;;;;;;5072333;28;20198;-62
2021/12/19 00:13:25;;;;;;;7.17;5.07;;;;;;;;;;5072126;28;20283;-62
2021/12/19 00:15:51;;;;;;;15.23;11.63;;;;;;;;;;5071700;28;20210;-62
2021/12/19 00:18:17;;;;;;;6.33;5.47;;;;;;;;;;5069986;28;20318;-63
2021/12/19 00:20:44;;;;;;;7.73;4.77;;;;;;;;;;5072055;28;20325;-64
2021/12/19 00:23:10;;;;;;;7.77;5.23;;;;;;;;;;5071995;28;20245;-64
2021/12/19 00:25:37;;;;;;;6.57;4.83;;;;;;;;;;5072077;28;20196;-65
2021/12/19 00:28:03;;;;;;;7.70;5.60;;;;;;;;;;5071669;28;20253;-63
2021/12/19 00:30:29;;;;;;;8.13;5.40;;;;;;;;;;5071028;28;20245;-67
2021/12/19 00:32:55;;;;;;;7.87;5.20;;;;;;;;;;5071772;28;20558;-67
2021/12/19 00:35:22;;;;;;;7.40;4.80;;;;;;;;;;5071690;28;20223;-67
2021/12/19 00:37:50;;;;;;;7.87;5.07;;;;;;;;;;5071792;28;20226;-67
2021/12/19 00:40:16;;;;;;;6.63;4.47;;;;;;;;;;5071360;28;20262;-67
2021/12/19 00:42:42;;;;;;;6.80;5.17;;;;;;;;;;5071678;28;20195;-66
2021/12/19 00:45:33;;;;;;;6.10;4.47;;;;;;;;;;5071661;28;20207;-66
2021/12/19 00:48:00;;;;;;;11.20;7.20;;;;;;;;;;5067931;28;20191;-66
2021/12/19 00:50:27;;;;;;;5.80;3.63;;;;;;;;;;5070651;28;20273;-67
2021/12/19 00:52:54;;;;;;;5.30;3.47;;;;;;;;;;5071458;28;20302;-64
2021/12/19 00:55:21;;;;;;;6.33;3.40;;;;;;;;;;5075475;28;20199;-62
2021/12/19 00:57:48;;;;;;;8.73;3.80;;;;;;;;;;5075662;28;20226;-62
2021/12/19 01:00:15;;;;;;;8.50;3.87;;;;;;;;;;5075570;28;20200;-62
2021/12/19 01:02:41;;;;;;;5.60;3.60;;;;;;;;;;5075398;28;20203;-62
2021/12/19 01:05:07;;;;;;;7.57;3.70;;;;;;;;;;5074874;28;20226;-63
2021/12/19 01:07:34;;;;;;;8.63;3.37;;;;;;;;;;5074855;28;20280;-64
2021/12/19 01:10:01;;;;;;;5.83;3.93;;;;;;;;;;5075272;28;20200;-62
2021/12/19 01:12:27;;;;;;;3.97;3.30;;;;;;;;;;5075157;28;20223;-64
2021/12/19 01:14:53;;;;;;;7.93;3.30;;;;;;;;;;5075261;28;20203;-62
2021/12/19 01:17:19;;;;;;;9.07;3.73;;;;;;;;;;5074867;28;20196;-62
2021/12/19 01:19:45;;;;;;;5.03;4.30;;;;;;;;;;5075134;28;20314;-62
2021/12/19 01:22:12;;;;;;;5.10;4.00;;;;;;;;;;5074949;28;20214;-63
2021/12/19 01:24:38;;;;;;;8.73;4.83;;;;;;;;;;5074910;28;20253;-63
2021/12/19 01:27:06;;;;;;;5.30;4.00;;;;;;;;;;5074653;28;20650;-63
2021/12/19 01:29:32;;;;;;;4.83;4.33;;;;;;;;;;5074631;28;20303;-62
2021/12/19 01:31:58;;;;;;;7.63;4.67;;;;;;;;;;5074788;28;20227;-62
2021/12/19 01:34:25;;;;;;;5.10;4.40;;;;;;;;;;5074865;28;20651;-62
2021/12/19 01:36:51;;;;;;;6.40;4.47;;;;;;;;;;5074709;28;20202;-61
2021/12/19 01:39:17;;;;;;;6.43;4.17;;;;;;;;;;5074469;28;20239;-62
2021/12/19 01:41:46;;;;;;;5.90;4.03;;;;;;;;;;5074839;28;20569;-62
2021/12/19 01:44:14;;;;;;;6.17;4.73;;;;;;;;;;5074357;28;20274;-62
2021/12/19 01:46:40;;;;;;;5.90;4.20;;;;;;;;;;5074473;28;20294;-62
2021/12/19 01:49:06;;;;;;;8.97;4.70;;;;;;;;;;5074527;28;20199;-63
2021/12/19 01:51:32;;;;;;;8.40;4.57;;;;;;;;;;5074514;28;20211;-63
2021/12/19 01:53:58;;;;;;;7.37;4.57;;;;;;;;;;5074558;28;20207;-62
2021/12/19 01:56:24;;;;;;;8.73;4.80;;;;;;;;;;5074505;28;20207;-63
2021/12/19 01:58:50;;;;;;;7.23;3.90;;;;;;;;;;5074449;28;20219;-63
2021/12/19 02:01:18;;;;;;;4.33;3.43;;;;;;;;;;5074451;28;20200;-62
2021/12/19 02:03:44;;;;;;;8.23;4.50;;;;;;;;;;5074537;28;20208;-62
2021/12/19 02:06:10;;;;;;;8.47;3.87;;;;;;;;;;5072906;28;20221;-63
2021/12/19 02:08:36;;;;;;;6.57;3.60;;;;;;;;;;5074071;28;20200;-63
2021/12/19 02:11:02;;;;;;;4.93;4.03;;;;;;;;;;5074194;28;20195;-62
2021/12/19 02:13:28;;;;;;;4.73;3.07;;;;;;;;;;5074082;28;20270;-63
2021/12/19 02:15:54;;;;;;;6.77;3.50;;;;;;;;;;5074169;28;20207;-63
2021/12/19 02:18:22;;;;;;;5.93;3.40;;;;;;;;;;5073934;28;20227;-62
2021/12/19 02:20:50;;;;;;;4.00;3.60;;;;;;;;;;5073990;28;20669;-62
2021/12/19 02:23:17;;;;;;;6.40;4.07;;;;;;;;;;5074014;28;20249;-62
2021/12/19 02:25:43;;;;;;;6.83;3.80;;;;;;;;;;5074299;28;20229;-63
2021/12/19 02:28:09;;;;;;;8.43;4.63;;;;;;;;;;5073911;28;20192;-62
2021/12/19 02:30:36;;;;;;;7.23;4.60;;;;;;;;;;5073756;28;20227;-62
2021/12/19 02:33:02;;;;;;;6.17;4.23;;;;;;;;;;5073934;28;20195;-62
2021/12/19 02:35:33;;;;;;;9.20;5.30;;;;;;;;;;5073640;28;20254;-62
2021/12/19 02:48:43;;;;;;;9.67;4.67;;;;;;;;;;5073401;28;20244;-62
2021/12/19 02:51:09;;;;;;;7.57;4.57;;;;;;;;;;5073408;28;20270;-63
2021/12/19 02:53:38;;;;;;;7.70;5.33;;;;;;;;;;5073248;28;20206;-62
2021/12/19 02:56:04;;;;;;;9.03;5.20;;;;;;;;;;5073380;28;20262;-63
2021/12/19 02:58:31;;;;;;;9.10;4.83;;;;;;;;;;5073105;28;20777;-62
2021/12/19 03:00:58;;;;;;;7.10;4.53;;;;;;;;;;5073010;28;20208;-62
2021/12/19 03:03:24;;;;;;;6.87;4.30;;;;;;;;;;5071693;28;20324;-63
2021/12/19 03:05:50;;;;;;;7.03;4.47;;;;;;;;;;5073083;28;20216;-63
2021/12/19 03:08:16;;;;;;;6.97;4.27;;;;;;;;;;5073010;28;20192;-63
2021/12/19 03:17:55;;;;;;;5.87;4.30;;;;;;;;;;5072941;28;20724;-63
2021/12/19 03:18:58;;;;;;;6.53;4.90;;;;;;;;;;5072837;28;20294;-63
2021/12/19 03:21:25;;;;;;;6.00;4.57;;;;;;;;;;5072745;28;20200;-63
2021/12/19 03:23:51;;;;;;;8.60;5.10;;;;;;;;;;5072793;28;20198;-62
2021/12/19 03:26:19;;;;;;;5.23;4.73;;;;;;;;;;5072689;28;20235;-63
2021/12/19 03:28:46;;;;;;;5.70;4.30;;;;;;;;;;5072870;28;20302;-63
2021/12/19 03:31:12;;;;;;;4.57;4.17;;;;;;;;;;5072570;28;20199;-63
2021/12/19 03:33:38;;;;;;;5.30;4.13;;;;;;;;;;5072441;28;20443;-62
2021/12/19 03:36:05;;;;;;;8.13;4.10;;;;;;;;;;5072569;28;20590;-62
2021/12/19 03:38:33;;;;;;;6.57;4.20;;;;;;;;;;5072281;28;20266;-62
2021/12/19 03:41:34;;;;;;;5.97;4.30;;;;;;;;;;5072557;28;20717;-62
2021/12/19 03:43:52;;;;;;;6.20;4.30;;;;;;;;;;5070240;28;20199;-63
2021/12/19 03:46:19;;;;;;;6.97;4.40;;;;;;;;;;5072226;28;20202;-62
2021/12/19 03:48:45;;;;;;;5.73;4.60;;;;;;;;;;5072432;28;20195;-63
2021/12/19 03:51:11;;;;;;;5.30;4.80;;;;;;;;;;5072306;28;20237;-63
2021/12/19 03:53:37;;;;;;;6.67;4.80;;;;;;;;;;5072174;28;20261;-63
2021/12/19 03:56:03;;;;;;;7.20;4.70;;;;;;;;;;5072229;28;20199;-63
2021/12/19 03:58:30;;;;;;;7.37;4.07;;;;;;;;;;5072105;28;20685;-63
2021/12/19 04:01:00;;;;;;;5.23;3.70;;;;;;;;;;5072336;28;20196;-63
2021/12/19 04:03:26;;;;;;;8.53;4.17;;;;;;;;;;5072087;28;20607;-63
2021/12/19 04:05:52;;;;;;;4.30;3.07;;;;;;;;;;5072206;28;20256;-63
2021/12/19 04:08:19;;;;;;;7.53;3.60;;;;;;;;;;5072158;28;20195;-63
2021/12/19 04:10:46;;;;;;;6.03;3.40;;;;;;;;;;5072359;28;20316;-63
2021/12/19 04:13:12;;;;;;;5.73;3.67;;;;;;;;;;5072152;28;20191;-62
2021/12/19 04:15:38;;;;;;;8.03;2.83;;;;;;;;;;5072209;28;20206;-63
2021/12/19 04:18:05;;;;;;;6.67;3.10;;;;;;;;;;5071941;28;20203;-63
2021/12/19 04:20:31;;;;;;;4.00;2.80;;;;;;;;;;5072052;28;20199;-63
2021/12/19 04:22:57;;;;;;;6.03;3.17;;;;;;;;;;5072141;28;20209;-63
2021/12/19 04:25:23;;;;;;;7.83;2.97;;;;;;;;;;5071865;28;20359;-63
2021/12/19 04:27:49;;;;;;;4.97;3.50;;;;;;;;;;5071981;28;20203;-63
2021/12/19 04:30:17;;;;;;;6.93;3.30;;;;;;;;;;5075926;28;20198;-63
2021/12/19 04:32:47;;;;;;;5.63;3.00;;;;;;;;;;5076158;28;20200;-63
2021/12/19 04:35:14;;;;;;;6.87;2.93;;;;;;;;;;5076033;28;20256;-63
2021/12/19 04:40:20;;;;;;;7.27;3.63;;;;;;;;;;5075777;28;20227;-63
2021/12/19 04:51:00;;;;;;;8.67;3.80;;;;;;;;;;5075668;28;20195;-63
2021/12/19 04:53:52;;;;;;;6.03;4.17;;;;;;;;;;5075748;28;20319;-63
2021/12/19 04:56:30;;;;;;;5.50;3.67;;;;;;;;;;5075615;28;20203;-63
2021/12/19 04:59:47;;;;;;;10.57;4.27;;;;;;;;;;5075456;28;20704;-63
2021/12/19 05:05:04;;;;;;;8.57;4.60;;;;;;;;;;5075287;28;20341;-63
2021/12/19 05:15:38;;;;;;;10.03;6.53;;;;;;;;;;5075144;28;20202;-63
2021/12/19 05:18:08;;;;;;;11.40;6.20;;;;;;;;;;5074953;28;20218;-63
2021/12/19 05:20:35;;;;;;;9.23;7.20;;;;;;;;;;5075048;28;20203;-63
2021/12/19 05:23:11;;;;;;;8.97;7.00;;;;;;;;;;5075101;28;20200;-63
2021/12/19 05:25:37;;;;;;;18.47;7.73;;;;;;;;;;5074878;28;20258;-63
2021/12/19 05:28:03;;;;;;;11.77;7.20;;;;;;;;;;5074998;28;20204;-63
2021/12/19 05:30:29;;;;;;;14.17;7.80;;;;;;;;;;5074942;28;20203;-63
2021/12/19 05:32:56;;;;;;;13.23;7.37;;;;;;;;;;5074950;28;20199;-63
2021/12/19 05:35:32;;;;;;;14.47;7.90;;;;;;;;;;5074767;28;20260;-63
2021/12/19 05:46:13;;;;;;;17.33;8.93;;;;;;;;;;5074761;28;20580;-63
2021/12/19 05:48:39;;;;;;;13.17;7.90;;;;;;;;;;5074374;28;20670;-62
2021/12/19 05:51:05;;;;;;;15.33;7.50;;;;;;;;;;5074733;28;20206;-62
2021/12/19 05:53:31;;;;;;;13.80;7.83;;;;;;;;;;5074583;28;20203;-63
2021/12/19 05:55:59;;;;;;;17.57;8.13;;;;;;;;;;5074694;28;20199;-63
2021/12/19 05:58:25;;;;;;;12.07;7.73;;;;;;;;;;5074345;28;20227;-62
2021/12/19 06:00:51;;;;;;;13.67;7.23;;;;;;;;;;5074323;28;20202;-63
2021/12/19 06:03:17;;;;;;;11.50;7.47;;;;;;;;;;5074360;28;20218;-63
2021/12/19 06:05:43;;;;;;;13.37;7.53;;;;;;;;;;5072999;28;20219;-63
2021/12/19 06:08:09;;;;;;;16.53;8.03;;;;;;;;;;5074268;28;20195;-63
2021/12/19 06:10:35;;;;;;;13.17;6.90;;;;;;;;;;5074453;28;20200;-63
2021/12/19 06:13:02;;;;;;;10.13;5.30;;;;;;;;;;5074283;28;20279;-63
2021/12/19 06:15:28;;;;;;;11.37;5.30;;;;;;;;;;5074171;28;20200;-63
2021/12/19 06:17:54;;;;;;;11.87;5.17;;;;;;;;;;5074117;28;20294;-63
2021/12/19 06:20:21;;;;;;;10.30;4.93;;;;;;;;;;5073857;28;20594;-63
2021/12/19 06:22:47;;;;;;;8.17;4.47;;;;;;;;;;5074127;28;20662;-63
2021/12/19 06:25:13;;;;;;;9.67;4.23;;;;;;;;;;5073905;28;20207;-63
2021/12/19 06:27:39;;;;;;;8.97;4.20;;;;;;;;;;5073734;28;20607;-63
2021/12/19 06:30:07;;;;;;;7.87;4.30;;;;;;;;;;5073958;28;20191;-64
2021/12/19 06:32:33;;;;;;;7.43;4.13;;;;;;;;;;5073733;28;20207;-63
2021/12/19 06:35:06;;;;;;;8.80;4.20;;;;;;;;;;5073831;28;20688;-64
2021/12/19 06:37:35;;;;;;;8.67;4.23;;;;;;;;;;5073677;28;20226;-63
2021/12/19 06:40:01;;;;;;;11.27;4.70;;;;;;;;;;5073500;28;20289;-63
2021/12/19 06:42:27;;;;;;;7.57;4.83;;;;;;;;;;5073598;28;20200;-64
2021/12/19 06:44:53;;;;;;;10.63;3.93;;;;;;;;;;5073571;28;20681;-63
2021/12/19 06:47:21;;;;;;;6.87;3.63;;;;;;;;;;5073434;28;20227;-63
2021/12/19 06:49:46;;;;;;;9.93;4.83;;;;;;;;;;5073716;28;20633;-63
2021/12/19 06:52:13;;;;;;;12.43;4.20;;;;;;;;;;5072752;28;20223;-64
2021/12/19 06:54:39;;;;;;;10.33;4.50;;;;;;;;;;5073291;28;20282;-64
2021/12/19 06:57:05;;;;;;;9.57;4.63;;;;;;;;;;5073306;28;20279;-63
2021/12/19 06:59:31;;;;;;;10.23;3.93;;;;;;;;;;5073135;28;20589;-62
2021/12/19 07:01:57;;;;;;;8.90;4.43;;;;;;;;;;5073057;28;20199;-63
2021/12/19 07:04:24;;;;;;;7.37;4.67;;;;;;;;;;5073105;28;20199;-63
2021/12/19 07:06:50;;;;;;;9.10;4.67;;;;;;;;;;5073162;28;20223;-63
2021/12/19 07:09:16;;;;;;;11.97;4.47;;;;;;;;;;5072934;28;20202;-63
2021/12/19 07:11:43;;;;;;;7.60;4.67;;;;;;;;;;5072985;28;20199;-64
2021/12/19 07:14:09;;;;;;;8.47;4.60;;;;;;;;;;5073020;28;20191;-66
2021/12/19 07:16:35;;;;;;;10.10;5.17;;;;;;;;;;5072422;28;20221;-63
2021/12/19 07:19:01;;;;;;;8.43;4.77;;;;;;;;;;5072811;28;20709;-63
2021/12/19 07:21:29;;;;;;;13.50;5.23;;;;;;;;;;5072337;28;20662;-63
2021/12/19 07:23:56;;;;;;;8.47;4.30;;;;;;;;;;5072753;28;20196;-63
2021/12/19 07:26:22;;;;;;;10.93;5.03;;;;;;;;;;5072280;28;20253;-62
2021/12/19 07:28:50;;;;;;;10.77;4.77;;;;;;;;;;5072338;28;20551;-63
2021/12/19 07:31:16;;;;;;;8.87;4.53;;;;;;;;;;5072277;28;20200;-63
2021/12/19 07:33:44;;;;;;;7.97;3.83;;;;;;;;;;5072459;28;20642;-63
2021/12/19 07:36:10;;;;;;;9.67;4.23;;;;;;;;;;5072469;28;20745;-63
2021/12/19 07:38:49;;;;;;;11.63;4.10;;;;;;;;;;5072108;28;20325;-63
2021/12/19 07:41:15;;;;;;;10.93;4.23;;;;;;;;;;5072357;28;20686;-64
2021/12/19 07:43:41;;;;;;;7.00;3.57;;;;;;;;;;5072161;28;20198;-63
2021/12/19 07:46:07;;;;;;;7.40;3.60;;;;;;;;;;5071977;28;20208;-63
2021/12/19 07:48:33;;;;;;;8.70;3.77;;;;;;;;;;5072292;28;20191;-64
2021/12/19 07:50:59;;;;;;;8.73;3.97;;;;;;;;;;5072419;28;20226;-63
2021/12/19 07:53:25;;;;;;;7.37;3.80;;;;;;;;;;5072217;28;20247;-63
2021/12/19 07:55:53;;;;;;;9.60;3.47;;;;;;;;;;5072237;28;20634;-64
2021/12/19 07:58:19;;;;;;;10.43;3.40;;;;;;;;;;5072082;28;20208;-64
2021/12/19 08:00:45;;;;;;;9.43;4.20;;;;;;;;;;5072225;28;20219;-64
2021/12/19 08:03:11;;;;;;;10.63;4.33;;;;;;;;;;5071977;28;20231;-64
2021/12/19 08:05:37;;;;;;;7.33;4.23;;;;;;;;;;5071506;28;20234;-63
2021/12/19 08:08:05;;;;;;;8.30;3.73;;;;;;;;;;5072259;28;20720;-63
2021/12/19 08:13:02;;;;;;;10.23;3.70;;;;;;;;;;5072191;28;20210;-63
2021/12/19 08:15:28;;;;;;;7.80;3.90;;;;;;;;;;5071877;28;20210;-63
2021/12/19 08:17:54;;;;;;;9.20;3.80;;;;;;;;;;5072068;28;20221;-64
2021/12/19 08:20:20;;;;;;;9.33;3.33;;;;;;;;;;5071893;28;20780;-64
2021/12/19 08:22:47;;;;;;;6.30;3.67;;;;;;;;;;5071818;28;20203;-70
2021/12/19 08:25:14;;;;;;;7.40;3.43;;;;;;;;;;5071972;28;20207;-68
2021/12/19 08:27:40;;;;;;;9.07;3.33;;;;;;;;;;5071725;28;20192;-65
2021/12/19 08:30:09;;;;;;;6.17;2.90;;;;;;;;;;5071903;28;20627;-68
2021/12/19 08:32:35;;;;;;;5.53;3.00;;;;;;;;;;5071697;28;20203;-65
2021/12/19 08:35:01;;;;;;;5.13;2.90;;;;;;;;;;5072021;28;20206;-64
2021/12/19 08:37:27;;;;;;;5.73;2.60;;;;;;;;;;5071790;28;20650;-64
2021/12/19 08:39:53;;;;;;;4.23;2.47;;;;;;;;;;5071604;28;20728;-61
2021/12/19 08:42:19;;;;;;;4.90;2.30;;;;;;;;;;5071724;28;20195;-61
2021/12/19 08:44:45;;;;;;;5.17;2.50;;;;;;;;;;5071360;28;20204;-62
2021/12/19 08:47:13;;;;;;;6.37;2.80;;;;;;;;;;5071760;28;20658;-61
2021/12/19 08:49:40;;;;;;;6.87;2.47;;;;;;;;;;5071474;28;20215;-62
2021/12/19 08:52:06;;;;;;;5.67;2.37;;;;;;;;;;5066719;28;20206;-62
2021/12/19 08:54:32;;;;;;;4.73;2.30;;;;;;;;;;5069738;28;20195;-63
2021/12/19 08:56:59;;;;;;;6.07;2.43;;;;;;;;;;5071088;28;20232;-63
2021/12/19 08:59:25;;;;;;;5.70;2.70;;;;;;;;;;5071504;28;20239;-61
2021/12/19 09:01:53;;;;;;;5.47;2.53;;;;;;;;;;5071493;28;20191;-63
2021/12/19 09:04:20;;;;;;;6.23;2.90;;;;;;;;;;5071186;28;20572;-63
2021/12/19 09:06:46;;;;;;;4.43;2.73;;;;;;;;;;5071262;28;20259;-62
2021/12/19 09:09:12;;;;;;;4.57;2.80;;;;;;;;;;5071527;28;20191;-62
2021/12/19 09:11:38;;;;;;;3.97;2.70;;;;;;;;;;5071244;28;20257;-62
2021/12/19 09:14:04;;;;;;;7.17;2.90;;;;;;;;;;5071516;28;20265;-62
2021/12/19 09:16:30;;;;;;;4.80;2.60;;;;;;;;;;5075051;28;20572;-62
2021/12/19 09:18:56;;;;;;;4.63;2.57;;;;;;;;;;5075039;28;20250;-62
2021/12/19 09:21:24;;;;;;;4.50;2.83;;;;;;;;;;5074820;28;20294;-61
2021/12/19 09:23:50;;;;;;;4.93;2.87;;;;;;;;;;5074704;28;20571;-62
2021/12/19 09:26:16;;;;;;;5.20;2.80;;;;;;;;;;5074860;28;20204;-61
2021/12/19 09:28:42;;;;;;;6.27;2.60;;;;;;;;;;5074736;28;20199;-61
2021/12/19 09:31:08;;;;;;;5.90;3.10;;;;;;;;;;5074672;28;20202;-61
2021/12/19 09:33:34;;;;;;;6.23;3.20;;;;;;;;;;5074731;28;20195;-61
2021/12/19 09:36:00;;;;;;;5.07;2.90;;;;;;;;;;5074950;28;20199;-61
2021/12/19 09:38:28;;;;;;;5.27;3.50;;;;;;;;;;5074429;28;20243;-61
2021/12/19 09:41:00;;;;;;;6.33;3.30;;;;;;;;;;5074738;28;20214;-60
2021/12/19 09:43:41;;;;;;;4.47;2.73;;;;;;;;;;5074581;28;20283;-61
2021/12/19 09:46:09;;;;;;;6.50;3.10;;;;;;;;;;5074354;28;20195;-61
2021/12/19 09:48:36;;;;;;;5.30;2.80;;;;;;;;;;5074119;28;20210;-62
2021/12/19 09:51:02;;;;;;;4.47;2.67;;;;;;;;;;5074622;28;20218;-61
2021/12/19 09:53:29;;;;;;;7.67;2.53;;;;;;;;;;5073469;28;20199;-61
2021/12/19 09:55:55;;;;;;;3.43;2.60;;;;;;;;;;5073940;28;20213;-60
2021/12/19 09:58:21;;;;;;;4.93;2.30;;;;;;;;;;5074128;28;20289;-61
2021/12/19 10:00:47;;;;;;;7.57;2.60;;;;;;;;;;5074247;28;20295;-61
2021/12/19 10:03:13;;;;;;;9.63;5.50;;;;;;;;;;5074479;28;20200;-62
2021/12/19 10:05:39;;;;;;;4.13;2.43;;;;;;;;;;5074160;28;20231;-61
2021/12/19 10:08:05;;;;;;;5.17;2.80;;;;;;;;;;5074375;28;20257;-61
2021/12/19 10:10:42;;;;;;;6.80;2.50;;;;;;;;;;5074073;28;20223;-61
2021/12/19 10:13:08;;;;;;;4.13;2.30;;;;;;;;;;5074204;28;20204;-61
2021/12/19 10:15:35;;;;;;;3.47;2.20;;;;;;;;;;5073877;28;20206;-61
2021/12/19 10:18:04;;;;;;;5.10;2.60;;;;;;;;;;5073991;28;20670;-60
2021/12/19 10:20:40;;;;;;;5.67;2.73;;;;;;;;;;5074074;28;20702;-60
2021/12/19 10:23:09;;;;;;;4.80;2.20;;;;;;;;;;5074032;28;20278;-61
2021/12/19 10:25:36;;;;;;;4.03;2.07;;;;;;;;;;5073053;28;20620;-61
2021/12/19 10:28:04;;;;;;;5.40;2.10;;;;;;;;;;5073619;28;20204;-61
2021/12/19 10:30:31;;;;;;;4.73;1.77;;;;;;;;;;5073828;28;20196;-61
2021/12/19 10:32:58;;;;;;;5.60;2.27;;;;;;;;;;5073895;28;20200;-61
2021/12/19 10:35:25;;;;;;;6.33;2.50;;;;;;;;;;5073915;28;20208;-61
2021/12/19 10:37:51;;;;;;;10.20;5.00;;;;;;;;;;5073835;28;20207;-62
2021/12/19 10:40:17;;;;;;;5.43;2.97;;;;;;;;;;5073109;28;20239;-62
2021/12/19 10:42:46;;;;;;;5.17;1.87;;;;;;;;;;5073743;28;20708;-61
2021/12/19 10:48:16;;;;;;;4.97;2.20;;;;;;;;;;5073645;28;20270;-61
2021/12/19 10:50:46;;;;;;;7.47;2.50;;;;;;;;;;5073544;28;20198;-61
2021/12/19 10:53:15;;;;;;;3.80;1.90;;;;;;;;;;5073491;28;20238;-61
2021/12/19 10:55:42;;;;;;;5.90;2.40;;;;;;;;;;5073330;28;20203;-61
2021/12/19 10:58:26;;;;;;;5.03;2.10;;;;;;;;;;5072716;28;20704;-62
2021/12/19 11:01:03;;;;;;;5.37;2.10;;;;;;;;;;5073427;28;20678;-62
2021/12/19 11:03:37;;;;;;;6.60;2.63;;;;;;;;;;5072768;28;20203;-61
2021/12/19 11:06:12;;;;;;;5.67;2.67;;;;;;;;;;5072654;28;20231;-62
2021/12/19 11:08:39;;;;;;;7.07;3.00;;;;;;;;;;5073095;28;20209;-62
2021/12/19 11:11:09;;;;;;;4.90;2.30;;;;;;;;;;5073103;28;20673;-62
2021/12/19 11:13:37;;;;;;;6.50;2.60;;;;;;;;;;5072809;28;20204;-62
2021/12/19 11:16:03;;;;;;;4.90;2.23;;;;;;;;;;5072766;28;20261;-62
2021/12/19 11:18:29;;;;;;;6.07;2.40;;;;;;;;;;5072639;28;20241;-62
2021/12/19 11:20:55;;;;;;;7.47;3.57;;;;;;;;;;5072874;28;20214;-62
2021/12/19 11:23:21;;;;;;;7.03;3.10;;;;;;;;;;5072770;28;20291;-62
2021/12/19 11:25:47;;;;;;;5.93;2.50;;;;;;;;;;5072892;28;20233;-61
2021/12/19 11:28:14;;;;;;;8.23;1.93;;;;;;;;;;5072961;28;20253;-62
2021/12/19 11:30:41;;;;;;;5.23;2.40;;;;;;;;;;5072765;28;20207;-62
2021/12/19 11:33:14;;;;;;;5.93;2.00;;;;;;;;;;5072750;28;20242;-63
2021/12/19 11:35:44;;;;;;;7.57;2.23;;;;;;;;;;5072601;28;20204;-64
2021/12/19 11:38:11;;;;;;;4.73;1.90;;;;;;;;;;5072329;28;20203;-61
2021/12/19 11:40:37;;;;;;;5.63;2.40;;;;;;;;;;5072456;28;20223;-62
2021/12/19 11:43:04;;;;;;;7.53;2.20;;;;;;;;;;5072329;28;20207;-60
2021/12/19 11:45:40;;;;;;;8.50;2.30;;;;;;;;;;5072236;28;20249;-62
2021/12/19 11:50:54;;;;;;;6.67;2.33;;;;;;;;;;5072497;28;20196;-62
2021/12/19 11:53:21;;;;;;;7.33;2.40;;;;;;;;;;5072417;28;20196;-61
2021/12/19 11:55:48;;;;;;;8.27;2.40;;;;;;;;;;5072272;28;20196;-62
2021/12/19 11:58:22;;;;;;;7.37;2.47;;;;;;;;;;5072381;28;20235;-62
2021/12/19 12:00:52;;;;;;;8.43;2.53;;;;;;;;;;5072119;28;20284;-61
2021/12/19 12:03:24;;;;;;;7.97;2.57;;;;;;;;;;5072101;28;20195;-62
2021/12/19 12:05:50;;;;;;;8.67;2.60;;;;;;;;;;5072023;28;20295;-62
2021/12/19 12:08:17;;;;;;;7.27;2.07;;;;;;;;;;5072075;28;20284;-63
2021/12/19 12:11:02;;;;;;;5.97;2.20;;;;;;;;;;5072187;28;20211;-62
2021/12/19 12:13:28;;;;;;;5.63;2.40;;;;;;;;;;5072008;28;20192;-62
2021/12/19 12:16:08;;;;;;;9.00;2.53;;;;;;;;;;5071870;28;20647;-62
2021/12/19 12:18:36;;;;;;;9.77;2.43;;;;;;;;;;5071839;28;20688;-60
2021/12/19 12:21:17;;;;;;;12.50;2.93;;;;;;;;;;5072120;28;20209;-62
2021/12/19 12:23:51;;;;;;;8.27;2.30;;;;;;;;;;5071596;28;20218;-61
2021/12/19 12:26:23;;;;;;;6.30;2.17;;;;;;;;;;5071082;28;20210;-61
2021/12/19 12:28:49;;;;;;;9.50;2.67;;;;;;;;;;5071484;28;20328;-62
2021/12/19 12:31:15;;;;;;;8.20;2.63;;;;;;;;;;5071699;28;20207;-62
2021/12/19 12:33:43;;;;;;;11.60;2.70;;;;;;;;;;5071773;28;20704;-62
2021/12/19 12:36:09;;;;;;;7.47;2.37;;;;;;;;;;5071103;28;20230;-60
2021/12/19 12:38:35;;;;;;;6.30;2.83;;;;;;;;;;5071581;28;20297;-61
2021/12/19 12:41:08;;;;;;;7.40;2.50;;;;;;;;;;5072021;28;20218;-61
2021/12/19 12:43:35;;;;;;;7.60;2.33;;;;;;;;;;5071754;28;20299;-60
2021/12/19 12:46:09;;;;;;;7.87;2.40;;;;;;;;;;5071833;28;20195;-61
2021/12/19 12:48:53;;;;;;;9.97;3.43;;;;;;;;;;5071583;28;20203;-61
2021/12/19 12:51:24;;;;;;;6.97;2.40;;;;;;;;;;5075478;28;20268;-62
2021/12/19 12:53:53;;;;;;;6.63;2.70;;;;;;;;;;5075861;28;20199;-62
2021/12/19 12:56:21;;;;;;;6.70;2.53;;;;;;;;;;5075772;28;20179;-61
2021/12/19 12:58:48;;;;;;;10.97;2.50;;;;;;;;;;5075258;28;20195;-61
2021/12/19 13:01:34;;;;;;;7.00;2.67;;;;;;;;;;5075707;28;20199;-62
2021/12/19 13:04:06;;;;;;;7.03;2.40;;;;;;;;;;5075224;28;20202;-62
2021/12/19 13:06:49;;;;;;;10.47;2.80;;;;;;;;;;5075180;28;20269;-60
2021/12/19 13:09:18;;;;;;;9.20;2.70;;;;;;;;;;5075531;28;20195;-61
2021/12/19 13:11:45;;;;;;;8.53;2.50;;;;;;;;;;5074791;28;20552;-63
2021/12/19 13:14:15;;;;;;;9.20;2.73;;;;;;;;;;5072444;28;20196;-61
2021/12/19 13:16:42;;;;;;;10.53;2.53;;;;;;;;;;5054586;28;20199;-60
2021/12/19 13:19:10;;;;;;;8.00;2.27;;;;;;;;;;5054611;28;20212;-61
2021/12/19 13:21:51;;;;;;;7.30;2.33;;;;;;;;;;5054960;28;20752;-62
2021/12/19 13:24:19;;;;;;;9.20;2.87;;;;;;;;;;5053236;28;20611;-61
2021/12/19 13:26:45;;;;;;;9.80;2.73;;;;;;;;;;5054961;28;20200;-61
2021/12/19 13:29:18;;;;;;;10.13;3.57;;;;;;;;;;5052676;28;20266;-61
2021/12/19 13:31:44;;;;;;;11.30;2.93;;;;;;;;;;5051734;28;20216;-62
2021/12/19 13:34:13;;;;;;;13.80;2.70;;;;;;;;;;5054128;28;20681;-62
2021/12/19 13:36:39;;;;;;;9.27;2.73;;;;;;;;;;5054273;28;20211;-61
2021/12/19 13:39:16;;;;;;;6.83;2.53;;;;;;;;;;5054603;28;20240;-62
2021/12/19 13:41:42;;;;;;;9.67;2.87;;;;;;;;;;5054611;28;20196;-62
2021/12/19 13:44:08;;;;;;;8.07;2.53;;;;;;;;;;5054670;28;20196;-61
2021/12/19 13:46:34;;;;;;;9.93;2.63;;;;;;;;;;5054534;28;20200;-61
2021/12/19 13:49:00;;;;;;;8.50;2.30;;;;;;;;;;5054589;28;20204;-61
2021/12/19 13:51:29;;;;;;;6.20;2.43;;;;;;;;;;5054423;28;20207;-66
2021/12/19 13:53:56;;;;;;;7.40;2.33;;;;;;;;;;5049352;28;20219;-70
2021/12/19 13:56:25;;;;;;;7.30;2.13;;;;;;;;;;5054412;28;20250;-63
2021/12/19 13:58:52;;;;;;;12.60;3.27;;;;;;;;;;5054198;28;20257;-63
2021/12/19 14:01:19;;;;;;;5.77;2.10;;;;;;;;;;5054162;28;20200;-66
2021/12/19 14:03:47;;;;;;;7.47;2.10;;;;;;;;;;5054172;28;20200;-65
2021/12/19 14:06:13;;;;;;;7.67;2.07;;;;;;;;;;5054100;28;20717;-65
2021/12/19 14:08:41;;;;;;;6.73;2.23;;;;;;;;;;5054219;28;20257;-65
2021/12/19 14:11:12;;;;;;;6.77;2.30;;;;;;;;;;5054135;28;20204;-66
2021/12/19 14:13:40;;;;;;;10.40;2.90;;;;;;;;;;5054101;28;20570;-63
2021/12/19 14:16:07;;;;;;;7.70;2.30;;;;;;;;;;5054031;28;20196;-64
2021/12/19 14:18:40;;;;;;;8.67;2.23;;;;;;;;;;5054151;28;20557;-64
2021/12/19 14:21:21;;;;;;;7.00;2.30;;;;;;;;;;5054326;28;20228;-65
2021/12/19 14:23:48;;;;;;;16.10;2.57;;;;;;;;;;5064227;28;20199;-64
2021/12/19 14:26:24;;;;;;;5.10;2.17;;;;;;;;;;5074271;28;20685;-64
2021/12/19 14:28:50;;;;;;;8.27;2.50;;;;;;;;;;5073099;28;20665;-64
2021/12/19 14:31:16;;;;;;;6.03;1.80;;;;;;;;;;5074110;28;20202;-65
2021/12/19 14:33:42;;;;;;;4.67;1.97;;;;;;;;;;5073744;28;20195;-63
2021/12/19 14:36:09;;;;;;;3.37;1.90;;;;;;;;;;5074091;28;20314;-62
2021/12/19 14:38:35;;;;;;;7.97;2.40;;;;;;;;;;5073627;28;20247;-65
2021/12/19 14:41:15;;;;;;;10.50;3.17;;;;;;;;;;5071928;28;20610;-63
2021/12/19 14:43:41;;;;;;;7.70;2.00;;;;;;;;;;5067379;28;20210;-64
2021/12/19 14:46:08;;;;;;;4.40;1.90;;;;;;;;;;5073116;28;20223;-66
2021/12/19 14:48:35;;;;;;;5.23;2.87;;;;;;;;;;5073053;28;20565;-66
2021/12/19 14:51:02;;;;;;;6.53;2.10;;;;;;;;;;5073159;28;20195;-67
2021/12/19 14:53:29;;;;;;;5.30;1.90;;;;;;;;;;5073187;28;20653;-66
2021/12/19 14:55:55;;;;;;;6.33;1.80;;;;;;;;;;5073224;28;20227;-66
2021/12/19 14:58:35;;;;;;;3.93;1.80;;;;;;;;;;5073026;28;20204;-66
2021/12/19 15:01:03;;;;;;;4.37;2.03;;;;;;;;;;5071527;28;20215;-66
2021/12/19 15:03:30;;;;;;;5.73;1.60;;;;;;;;;;5073272;28;20265;-66
2021/12/19 15:05:57;;;;;;;6.73;2.17;;;;;;;;;;5071020;28;20560;-66
2021/12/19 15:08:26;;;;;;;5.63;1.90;;;;;;;;;;5072562;28;20191;-64
2021/12/19 15:10:52;;;;;;;6.33;1.90;;;;;;;;;;5072499;28;20265;-65
2021/12/19 15:13:18;;;;;;;6.20;2.07;;;;;;;;;;5072001;28;20208;-66
2021/12/19 15:15:46;;;;;;;6.00;2.13;;;;;;;;;;5072526;28;20223;-67
2021/12/19 15:18:12;;;;;;;6.90;2.10;;;;;;;;;;5072649;28;20685;-66
2021/12/19 15:20:38;;;;;;;8.27;2.13;;;;;;;;;;5072426;28;20223;-65
2021/12/19 15:23:04;;;;;;;8.40;2.40;;;;;;;;;;5072529;28;20202;-66
2021/12/19 15:25:31;;;;;;;4.83;1.83;;;;;;;;;;5072504;28;20282;-66
2021/12/19 15:27:57;;;;;;;5.10;1.90;;;;;;;;;;5072327;28;20298;-66
2021/12/19 15:30:23;;;;;;;7.80;2.10;;;;;;;;;;5072235;28;20201;-66
2021/12/19 15:32:54;;;;;;;7.73;1.93;;;;;;;;;;5072126;28;20704;-67
2021/12/19 15:35:20;;;;;;;8.33;2.27;;;;;;;;;;5072280;28;20303;-66
2021/12/19 15:37:46;;;;;;;6.70;2.00;;;;;;;;;;5072223;28;20209;-66
2021/12/19 15:40:12;;;;;;;7.17;1.97;;;;;;;;;;5071884;28;20243;-66
2021/12/19 15:42:38;;;;;;;7.27;2.30;;;;;;;;;;5072201;28;20195;-66
2021/12/19 15:45:05;;;;;;;5.37;2.13;;;;;;;;;;5072223;28;20536;-64
2021/12/19 15:47:31;;;;;;;8.17;2.27;;;;;;;;;;5072123;28;20606;-65